createdAt,value
2019-04-25T00:02:36.636Z,0.67
2019-04-25T00:05:42.785Z,0.80
2019-04-25T00:08:48.815Z,0.80
2019-04-25T00:11:53.934Z,0.67
2019-04-25T00:14:59.054Z,0.87
2019-04-25T00:18:04.398Z,0.73
2019-04-25T00:21:31.770Z,0.93
2019-04-25T00:24:55.983Z,0.90
2019-04-25T00:28:01.844Z,1.00
2019-04-25T00:31:07.833Z,0.70
2019-04-25T00:34:14.138Z,0.70
2019-04-25T00:37:19.325Z,1.03
2019-04-25T00:40:24.684Z,0.80
2019-04-25T00:43:31.355Z,0.77
2019-04-25T00:46:36.658Z,0.70
2019-04-25T00:49:43.823Z,0.60
2019-04-25T00:52:48.715Z,0.80
2019-04-25T00:55:53.937Z,0.90
2019-04-25T00:59:11.817Z,0.80
2019-04-25T01:02:42.343Z,0.63
2019-04-25T01:05:48.098Z,0.70
2019-04-25T01:08:54.626Z,0.70
2019-04-25T01:12:02.207Z,0.90
2019-04-25T01:15:08.492Z,1.07
2019-04-25T01:18:13.935Z,1.20
2019-04-25T01:21:18.997Z,0.80
2019-04-25T01:24:24.281Z,0.80
2019-04-25T01:27:30.098Z,1.00
2019-04-25T01:30:35.266Z,0.80
2019-04-25T01:33:40.361Z,0.90
2019-04-25T01:36:59.238Z,1.20
2019-04-25T01:40:27.878Z,1.10
2019-04-25T01:43:52.777Z,0.90
2019-04-25T01:46:57.006Z,0.90
2019-04-25T01:50:03.786Z,0.90
2019-04-25T01:53:17.116Z,0.90
2019-04-25T01:56:23.006Z,0.90
2019-04-25T01:59:29.167Z,0.90
2019-04-25T02:02:34.399Z,1.20
2019-04-25T02:05:39.496Z,0.90
2019-04-25T02:08:44.704Z,0.80
2019-04-25T02:12:16.780Z,0.90
2019-04-25T02:15:25.388Z,0.97
2019-04-25T02:18:30.513Z,1.00
2019-04-25T02:21:35.712Z,0.90
2019-04-25T02:24:40.847Z,0.93
2019-04-25T02:27:45.967Z,1.00
2019-04-25T02:30:51.179Z,1.00
2019-04-25T02:33:59.651Z,0.93
2019-04-25T02:37:08.343Z,1.20
2019-04-25T02:40:10.455Z,1.00
2019-04-25T02:43:15.523Z,1.00
2019-04-25T02:46:39.625Z,0.90
2019-04-25T02:50:21.845Z,1.10
2019-04-25T02:53:37.267Z,1.30
2019-04-25T02:56:41.930Z,0.90
2019-04-25T02:59:47.112Z,1.00
2019-04-25T03:02:54.574Z,1.20
2019-04-25T03:06:01.455Z,1.33
2019-04-25T03:09:10.023Z,1.07
2019-04-25T03:12:29.759Z,1.20
2019-04-25T03:15:24.140Z,1.27
2019-04-25T03:18:30.544Z,1.53
2019-04-25T03:21:36.296Z,1.40
2019-04-25T03:24:41.372Z,1.10
2019-04-25T03:27:46.517Z,1.60
2019-04-25T03:30:51.662Z,1.07
2019-04-25T03:33:56.809Z,1.20
2019-04-25T03:37:04.063Z,1.10
2019-04-25T03:40:09.673Z,1.13
2019-04-25T03:43:15.091Z,1.17
2019-04-25T03:46:20.194Z,1.30
2019-04-25T03:49:25.348Z,1.67
2019-04-25T03:52:30.468Z,1.97
2019-04-25T03:55:35.919Z,1.37
2019-04-25T03:58:41.110Z,1.93
2019-04-25T04:01:46.279Z,1.20
2019-04-25T04:04:51.413Z,1.93
2019-04-25T04:07:56.634Z,1.60
2019-04-25T04:11:01.720Z,1.67
2019-04-25T04:14:07.101Z,1.80
2019-04-25T04:17:40.357Z,1.43
2019-04-25T04:21:03.253Z,1.60
2019-04-25T04:24:30.783Z,1.80
2019-04-25T04:27:36.908Z,1.60
2019-04-25T04:30:43.577Z,1.60
2019-04-25T04:33:48.934Z,1.90
2019-04-25T04:36:55.123Z,1.40
2019-04-25T04:40:03.595Z,1.67
2019-04-25T04:43:09.623Z,1.40
2019-04-25T04:46:17.868Z,2.00
2019-04-25T04:49:23.774Z,1.80
2019-04-25T04:52:29.133Z,1.73
2019-04-25T04:55:34.839Z,2.00
2019-04-25T04:58:40.006Z,1.53
2019-04-25T05:02:15.040Z,2.47
2019-04-25T05:05:43.893Z,2.60
2019-04-25T05:08:53.184Z,2.20
2019-04-25T05:11:58.804Z,1.87
2019-04-25T05:15:04.159Z,1.63
2019-04-25T05:18:09.355Z,1.57
2019-04-25T05:21:15.707Z,1.10
2019-04-25T05:24:21.347Z,1.20
2019-04-25T05:27:35.839Z,1.20
2019-04-25T05:30:53.536Z,1.10
2019-04-25T05:33:59.842Z,1.33
2019-04-25T05:37:05.126Z,1.00
2019-04-25T05:40:10.367Z,1.20
2019-04-25T05:43:16.307Z,1.20
2019-04-25T05:46:21.472Z,1.10
2019-04-25T05:49:26.862Z,1.27
2019-04-25T05:52:33.463Z,1.20
2019-04-25T05:55:38.968Z,1.10
2019-04-25T05:58:44.142Z,1.17
2019-04-25T06:01:49.283Z,1.20
2019-04-25T06:04:54.470Z,1.23
2019-04-25T06:07:59.595Z,1.40
2019-04-25T06:11:15.975Z,1.50
2019-04-25T06:14:22.210Z,1.20
2019-04-25T06:17:36.599Z,1.50
2019-04-25T06:20:41.727Z,1.90
2019-04-25T06:24:19.087Z,1.80
2019-04-25T06:27:28.797Z,1.40
2019-04-25T06:30:35.230Z,1.57
2019-04-25T06:33:43.240Z,1.83
2019-04-25T06:36:48.572Z,1.60
2019-04-25T06:39:53.796Z,1.80
2019-04-25T06:42:58.989Z,1.50
2019-04-25T06:46:21.142Z,1.63
2019-04-25T06:49:29.414Z,1.80
2019-04-25T06:52:35.464Z,1.40
2019-04-25T06:55:40.803Z,1.37
2019-04-25T06:58:45.986Z,1.80
2019-04-25T07:01:51.107Z,1.57
2019-04-25T07:04:56.261Z,1.30
2019-04-25T07:08:01.401Z,1.77
2019-04-25T07:11:06.595Z,1.80
2019-04-25T07:14:11.796Z,1.77
2019-04-25T07:17:16.966Z,1.40
2019-04-25T07:20:25.691Z,1.80
2019-04-25T07:23:29.754Z,1.57
2019-04-25T07:26:58.176Z,1.60
2019-04-25T07:30:48.415Z,1.60
2019-04-25T07:34:06.432Z,1.90
2019-04-25T07:37:13.212Z,1.70
2019-04-25T07:40:20.375Z,1.60
2019-04-25T07:43:25.877Z,1.30
2019-04-25T07:46:32.801Z,1.63
2019-04-25T07:49:38.307Z,1.63
2019-04-25T07:52:44.334Z,1.60
2019-04-25T07:55:49.456Z,1.50
2019-04-25T07:58:54.897Z,1.27
2019-04-25T08:02:00.134Z,1.60
2019-04-25T08:05:10.977Z,1.47
2019-04-25T08:08:16.108Z,1.00
2019-04-25T08:11:21.317Z,1.30
2019-04-25T08:14:45.947Z,1.20
2019-04-25T08:18:00.230Z,1.20
2019-04-25T08:21:05.499Z,0.90
2019-04-25T08:24:11.681Z,1.40
2019-04-25T08:27:16.930Z,1.10
2019-04-25T08:30:22.117Z,1.20
2019-04-25T08:33:27.262Z,0.97
2019-04-25T08:36:33.799Z,1.00
2019-04-25T08:39:39.825Z,1.10
2019-04-25T08:42:44.985Z,0.90
2019-04-25T08:45:50.200Z,1.20
2019-04-25T08:49:06.500Z,1.20
2019-04-25T08:52:13.134Z,0.90
2019-04-25T08:55:37.050Z,1.67
2019-04-25T08:59:05.517Z,0.80
2019-04-25T09:02:14.921Z,0.80
2019-04-25T09:05:32.643Z,1.10
2019-04-25T09:08:39.418Z,0.90
2019-04-25T09:11:46.921Z,1.27
2019-04-25T09:14:51.766Z,0.80
2019-04-25T09:17:57.076Z,1.00
2019-04-25T09:21:03.880Z,1.40
2019-04-25T09:24:09.151Z,1.07
2019-04-25T09:27:14.291Z,0.93
2019-04-25T09:30:19.667Z,0.90
2019-04-25T09:33:24.788Z,1.10
2019-04-25T09:36:30.155Z,0.83
2019-04-25T09:40:04.224Z,1.27
2019-04-25T09:43:09.653Z,1.00
2019-04-25T09:46:21.565Z,1.40
2019-04-25T09:49:31.003Z,1.23
2019-04-25T09:52:36.239Z,0.70
2019-04-25T09:55:48.291Z,0.73
2019-04-25T09:58:56.861Z,0.63
2019-04-25T10:02:02.041Z,0.90
2019-04-25T10:05:07.975Z,1.13
2019-04-25T10:08:13.490Z,1.10
2019-04-25T10:11:18.605Z,0.87
2019-04-25T10:15:00.624Z,0.70
2019-04-25T10:18:05.992Z,1.27
2019-04-25T10:21:14.431Z,0.60
2019-04-25T10:24:20.084Z,0.77
2019-04-25T10:27:25.204Z,0.80
2019-04-25T10:30:32.406Z,0.70
2019-04-25T10:33:38.858Z,0.90
2019-04-25T10:36:45.415Z,1.00
2019-04-25T10:39:51.370Z,0.73
2019-04-25T10:42:56.999Z,1.00
2019-04-25T10:46:03.493Z,1.00
2019-04-25T10:49:10.033Z,0.90
2019-04-25T10:52:15.648Z,0.80
2019-04-25T10:55:20.951Z,0.73
2019-04-25T10:58:26.211Z,1.00
2019-04-25T11:01:31.359Z,0.90
2019-04-25T11:04:47.476Z,0.90
2019-04-25T11:07:55.556Z,0.90
2019-04-25T11:10:59.641Z,0.70
2019-04-25T11:14:07.533Z,0.80
2019-04-25T11:17:15.448Z,0.80
2019-04-25T11:20:28.418Z,1.00
2019-04-25T11:23:33.551Z,1.20
2019-04-25T11:26:38.979Z,0.90
2019-04-25T11:29:45.047Z,0.70
2019-04-25T11:32:53.189Z,0.90
2019-04-25T11:35:58.505Z,1.30
2019-04-25T11:39:26.679Z,0.80
2019-04-25T11:42:33.820Z,0.80
2019-04-25T11:45:39.530Z,1.00
2019-04-25T11:48:45.403Z,1.20
2019-04-25T11:51:52.426Z,0.80
2019-04-25T11:54:57.658Z,1.00
2019-04-25T11:58:03.719Z,0.60
2019-04-25T12:01:09.444Z,0.80
2019-04-25T12:04:14.888Z,1.00
2019-04-25T12:07:20.055Z,0.90
2019-04-25T12:10:25.316Z,0.70
2019-04-25T12:13:30.645Z,0.97
2019-04-25T12:16:35.888Z,0.70
2019-04-25T12:19:41.072Z,0.80
2019-04-25T12:22:46.639Z,0.70
2019-04-25T12:25:53.676Z,0.80
2019-04-25T12:28:58.699Z,0.70
2019-04-25T12:32:04.262Z,0.73
2019-04-25T12:35:09.525Z,0.97
2019-04-25T12:38:14.830Z,0.83
2019-04-25T12:41:20.035Z,1.10
2019-04-25T12:45:04.050Z,0.70
2019-04-25T12:48:10.059Z,0.90
2019-04-25T12:51:15.481Z,0.77
2019-04-25T12:54:20.686Z,0.60
2019-04-25T12:57:27.411Z,0.90
2019-04-25T13:00:34.100Z,0.80
2019-04-25T13:03:39.489Z,0.80
2019-04-25T13:06:44.614Z,0.70
2019-04-25T13:09:52.254Z,0.77
2019-04-25T13:12:56.590Z,0.80
2019-04-25T13:16:01.849Z,0.50
2019-04-25T13:19:16.486Z,0.90
2019-04-25T13:22:14.187Z,0.67
2019-04-25T13:25:21.010Z,0.83
2019-04-25T13:28:50.215Z,0.60
2019-04-25T13:32:14.382Z,1.00
2019-04-25T13:35:24.166Z,0.60
2019-04-25T13:38:29.205Z,0.63
2019-04-25T13:41:34.403Z,0.60
2019-04-25T13:44:39.721Z,0.50
2019-04-25T13:47:44.957Z,0.60
2019-04-25T13:50:50.106Z,0.60
2019-04-25T13:53:56.595Z,0.60
2019-04-25T13:57:03.237Z,0.60
2019-04-25T14:00:10.140Z,0.60
2019-04-25T14:03:15.649Z,0.80
2019-04-25T14:06:20.910Z,0.43
2019-04-25T14:09:27.998Z,0.73
2019-04-25T14:12:34.057Z,0.50
2019-04-25T14:15:45.071Z,0.60
2019-04-25T14:19:25.301Z,0.40
2019-04-25T14:22:30.620Z,0.67
2019-04-25T14:25:36.213Z,0.63
2019-04-25T14:28:41.445Z,0.50
2019-04-25T14:31:48.584Z,0.50
2019-04-25T14:34:54.459Z,0.57
2019-04-25T14:37:59.761Z,0.50
2019-04-25T14:41:05.619Z,1.00
2019-04-25T14:44:10.821Z,0.67
2019-04-25T14:47:16.206Z,0.40
2019-04-25T14:50:21.373Z,0.50
2019-04-25T14:53:26.582Z,0.50
2019-04-25T14:56:46.878Z,0.60
2019-04-25T14:59:52.045Z,0.70
2019-04-25T15:02:57.208Z,0.60
2019-04-25T15:06:02.360Z,0.50
2019-04-25T15:09:08.410Z,0.60
2019-04-25T15:12:14.304Z,0.50
2019-04-25T15:15:19.459Z,0.60
2019-04-25T15:18:24.786Z,0.47
2019-04-25T15:21:29.963Z,0.70
2019-04-25T15:24:35.128Z,0.57
2019-04-25T15:27:40.292Z,0.80
2019-04-25T15:30:45.928Z,0.53
2019-04-25T15:33:51.503Z,0.30
2019-04-25T15:37:04.891Z,0.50
2019-04-25T15:40:31.388Z,0.70
2019-04-25T15:43:55.552Z,0.80
2019-04-25T15:47:01.631Z,0.40
2019-04-25T15:50:07.151Z,1.27
2019-04-25T15:53:12.273Z,0.50
2019-04-25T15:56:17.511Z,0.60
2019-04-25T15:59:22.682Z,0.70
2019-04-25T16:02:28.820Z,0.50
2019-04-25T16:05:34.121Z,0.60
2019-04-25T16:08:39.502Z,0.60
2019-04-25T16:11:44.693Z,0.60
2019-04-25T16:14:49.951Z,0.70
2019-04-25T16:17:55.266Z,0.73
2019-04-25T16:21:00.509Z,1.03
2019-04-25T16:24:05.716Z,0.80
2019-04-25T16:27:12.386Z,0.60
2019-04-25T16:30:19.781Z,0.63
2019-04-25T16:33:25.011Z,0.60
2019-04-25T16:36:30.761Z,0.60
2019-04-25T16:39:37.710Z,0.60
2019-04-25T16:42:42.902Z,0.57
2019-04-25T16:45:48.068Z,0.60
2019-04-25T16:48:53.251Z,0.67
2019-04-25T16:51:58.633Z,0.80
2019-04-25T16:55:04.179Z,0.70
2019-04-25T16:58:11.361Z,0.77
2019-04-25T17:01:16.591Z,0.80
2019-04-25T17:04:21.833Z,0.70
2019-04-25T17:07:27.027Z,0.87
2019-04-25T17:10:33.337Z,0.60
2019-04-25T17:13:47.895Z,0.70
2019-04-25T17:17:10.058Z,0.93
2019-04-25T17:20:23.208Z,0.80
2019-04-25T17:23:28.369Z,1.10
2019-04-25T17:26:33.489Z,1.00
2019-04-25T17:29:38.753Z,0.90
2019-04-25T17:33:05.639Z,0.80
2019-04-25T17:36:15.863Z,1.13
2019-04-25T17:39:42.121Z,1.20
2019-04-25T17:42:47.343Z,0.80
2019-04-25T17:45:52.744Z,1.03
2019-04-25T17:48:57.946Z,1.03
2019-04-25T17:52:03.111Z,0.90
2019-04-25T17:55:08.476Z,1.30
2019-04-25T17:58:13.686Z,0.80
2019-04-25T18:01:22.949Z,0.80
2019-04-25T18:04:28.104Z,1.27
2019-04-25T18:07:34.145Z,2.07
2019-04-25T18:10:39.327Z,2.00
2019-04-25T18:13:45.019Z,1.30
2019-04-25T18:16:50.237Z,0.90
2019-04-25T18:20:00.843Z,1.00
2019-04-25T18:23:28.136Z,0.83
2019-04-25T18:26:55.187Z,1.20
2019-04-25T18:30:00.360Z,1.73
2019-04-25T18:33:24.502Z,1.60
2019-04-25T18:36:45.389Z,1.30
2019-04-25T18:39:57.396Z,1.90
2019-04-25T18:43:16.599Z,1.40
2019-04-25T18:46:33.924Z,1.10
2019-04-25T18:49:40.451Z,0.80
2019-04-25T18:52:58.704Z,1.07
2019-04-25T18:56:27.045Z,1.30
2019-04-25T19:00:00.228Z,1.30
2019-04-25T19:03:22.666Z,1.00
2019-04-25T19:06:21.194Z,1.33
2019-04-25T19:09:26.579Z,1.43
2019-04-25T19:12:31.849Z,1.87
2019-04-25T19:15:37.205Z,1.97
2019-04-25T19:18:45.181Z,1.40
2019-04-25T19:21:49.205Z,1.30
2019-04-25T19:24:54.325Z,1.50
2019-04-25T19:27:59.524Z,1.47
2019-04-25T19:31:05.998Z,1.20
2019-04-25T19:34:11.401Z,1.53
2019-04-25T19:37:16.618Z,0.80
2019-04-25T19:40:39.609Z,0.77
2019-04-25T19:43:49.322Z,1.17
2019-04-25T19:46:54.572Z,0.97
2019-04-25T19:50:16.734Z,0.90
2019-04-25T19:53:24.462Z,0.70
2019-04-25T19:56:29.561Z,0.97
2019-04-25T19:59:34.701Z,1.10
2019-04-25T20:02:51.445Z,0.70
2019-04-25T20:06:27.900Z,0.73
2019-04-25T20:10:02.838Z,0.70
2019-04-25T20:13:09.661Z,0.80
2019-04-25T20:16:14.828Z,0.70
2019-04-25T20:19:20.005Z,0.70
2019-04-25T20:22:25.189Z,0.80
2019-04-25T20:25:30.435Z,0.60
2019-04-25T20:28:35.709Z,0.70
2019-04-25T20:31:40.853Z,0.60
2019-04-25T20:34:46.985Z,0.50
2019-04-25T20:37:53.394Z,0.73
2019-04-25T20:40:58.747Z,0.57
2019-04-25T20:44:03.829Z,0.70
2019-04-25T20:47:09.003Z,0.80
2019-04-25T20:50:15.814Z,0.60
2019-04-25T20:53:20.929Z,0.70
2019-04-25T20:56:26.063Z,0.60
2019-04-25T20:59:32.286Z,0.73
2019-04-25T21:02:37.447Z,0.60
2019-04-25T21:05:43.451Z,0.70
2019-04-25T21:08:49.038Z,0.50
2019-04-25T21:11:55.728Z,0.73
2019-04-25T21:15:26.016Z,0.57
2019-04-25T21:18:45.935Z,0.50
2019-04-25T21:21:51.814Z,0.80
2019-04-25T21:24:57.937Z,0.67
2019-04-25T21:28:03.206Z,0.47
2019-04-25T21:31:08.591Z,0.70
2019-04-25T21:34:25.966Z,0.60
2019-04-25T21:37:20.734Z,0.50
2019-04-25T21:41:03.503Z,0.67
2019-04-25T21:44:09.135Z,0.40
2019-04-25T21:47:14.419Z,0.40
2019-04-25T21:50:19.859Z,0.70
2019-04-25T21:53:25.290Z,0.50
2019-04-25T21:56:31.021Z,0.50
2019-04-25T21:59:36.210Z,0.53
2019-04-25T22:02:41.345Z,0.60
2019-04-25T22:05:46.849Z,0.60
2019-04-25T22:08:52.006Z,0.53
2019-04-25T22:11:57.827Z,0.60
2019-04-25T22:15:05.536Z,0.60
2019-04-25T22:18:10.930Z,0.90
2019-04-25T22:21:16.134Z,0.60
2019-04-25T22:24:21.834Z,0.30
2019-04-25T22:27:31.993Z,0.43
2019-04-25T22:30:37.874Z,0.67
2019-04-25T22:34:13.983Z,0.53
2019-04-25T22:37:19.558Z,0.73
2019-04-25T22:40:24.987Z,0.80
2019-04-25T22:43:31.831Z,0.60
2019-04-25T22:46:37.367Z,0.60
2019-04-25T22:49:42.840Z,0.50
2019-04-25T22:52:48.442Z,0.60
2019-04-25T22:55:53.621Z,0.70
2019-04-25T22:59:00.445Z,0.40
2019-04-25T23:02:25.085Z,0.60
2019-04-25T23:05:37.796Z,0.70
2019-04-25T23:08:43.145Z,0.60
2019-04-25T23:11:48.308Z,0.50
2019-04-25T23:14:53.822Z,0.73
2019-04-25T23:17:58.994Z,0.70
2019-04-25T23:21:04.283Z,0.60
2019-04-25T23:24:11.854Z,0.80
2019-04-25T23:27:30.585Z,0.90
2019-04-25T23:30:54.676Z,0.63
2019-04-25T23:33:59.815Z,0.60
2019-04-25T23:37:06.219Z,0.50
2019-04-25T23:40:11.948Z,0.63
2019-04-25T23:43:17.122Z,0.60
2019-04-25T23:46:22.250Z,0.70
2019-04-25T23:49:27.420Z,0.70
2019-04-25T23:52:32.689Z,0.70
2019-04-25T23:55:37.906Z,0.83
2019-04-25T23:58:43.099Z,0.90
